sensor_id;sensor_type;location;lat;lon;timestamp;pressure;altitude;pressure_sealevel;temperature;humidity
44481;BME280;30184;42.018;23.670;2023-02-20T00:01:25;91684.56;;;4.73;69.52
44481;BME280;30184;42.018;23.670;2023-02-20T00:03:54;91695.69;;;4.75;69.17
44481;BME280;30184;42.018;23.670;2023-02-20T00:06:23;91696.84;;;4.74;69.41
44481;BME280;30184;42.018;23.670;2023-02-20T00:08:52;91684.97;;;4.72;69.64
44481;BME280;30184;42.018;23.670;2023-02-20T00:11:21;91609.56;;;3.99;69.67
44481;BME280;30184;42.018;23.670;2023-02-20T00:13:50;91689.22;;;4.69;70.04
44481;BME280;30184;42.018;23.670;2023-02-20T00:16:18;91688.81;;;4.67;70.03
44481;BME280;30184;42.018;23.670;2023-02-20T00:18:49;91686.91;;;4.64;70.17
44481;BME280;30184;42.018;23.670;2023-02-20T00:21:18;91694.63;;;4.62;70.26
44481;BME280;30184;42.018;23.670;2023-02-20T00:23:47;91692.69;;;4.59;70.28
44481;BME280;30184;42.018;23.670;2023-02-20T00:26:15;91698.44;;;4.58;70.26
44481;BME280;30184;42.018;23.670;2023-02-20T00:28:44;91632.63;;;3.79;70.39
44481;BME280;30184;42.018;23.670;2023-02-20T00:31:15;91733.03;;;4.52;70.65
44481;BME280;30184;42.018;23.670;2023-02-20T00:33:46;91721.88;;;4.50;70.79
44481;BME280;30184;42.018;23.670;2023-02-20T00:36:18;91570.19;;;3.32;71.24
44481;BME280;30184;42.018;23.670;2023-02-20T00:38:47;91718.44;;;4.46;71.92
44481;BME280;30184;42.018;23.670;2023-02-20T00:41:16;91723.06;;;4.42;72.64
44481;BME280;30184;42.018;23.670;2023-02-20T00:43:44;91731.16;;;4.03;72.83
44481;BME280;30184;42.018;23.670;2023-02-20T00:46:13;91705.41;;;4.27;72.97
44481;BME280;30184;42.018;23.670;2023-02-20T00:48:42;91724.97;;;4.38;72.58
44481;BME280;30184;42.018;23.670;2023-02-20T00:51:32;91738.03;;;4.36;72.56
44481;BME280;30184;42.018;23.670;2023-02-20T00:54:02;91734.59;;;4.32;72.81
44481;BME280;30184;42.018;23.670;2023-02-20T00:56:31;91721.53;;;4.30;73.27
44481;BME280;30184;42.018;23.670;2023-02-20T00:59:01;91725.75;;;4.31;73.17
44481;BME280;30184;42.018;23.670;2023-02-20T01:01:31;91741.50;;;4.22;74.74
44481;BME280;30184;42.018;23.670;2023-02-20T01:03:59;91726.91;;;4.34;74.65
44481;BME280;30184;42.018;23.670;2023-02-20T01:06:28;91709.63;;;4.38;74.24
44481;BME280;30184;42.018;23.670;2023-02-20T01:08:59;91550.66;;;3.21;73.89
44481;BME280;30184;42.018;23.670;2023-02-20T01:11:28;91693.13;;;4.43;73.59
44481;BME280;30184;42.018;23.670;2023-02-20T01:13:59;91701.16;;;4.47;73.21
44481;BME280;30184;42.018;23.670;2023-02-20T01:16:29;91701.16;;;4.50;73.18
44481;BME280;30184;42.018;23.670;2023-02-20T01:18:58;91701.94;;;4.51;72.97
44481;BME280;30184;42.018;23.670;2023-02-20T01:21:27;91694.63;;;4.52;72.82
44481;BME280;30184;42.018;23.670;2023-02-20T01:23:56;91706.53;;;4.50;72.75
44481;BME280;30184;42.018;23.670;2023-02-20T01:26:26;91656.78;;;3.75;72.91
44481;BME280;30184;42.018;23.670;2023-02-20T01:28:56;91711.53;;;4.52;73.29
44481;BME280;30184;42.018;23.670;2023-02-20T01:31:24;91703.09;;;4.54;73.47
44481;BME280;30184;42.018;23.670;2023-02-20T01:33:54;91697.72;;;4.54;73.46
44481;BME280;30184;42.018;23.670;2023-02-20T01:36:23;91637.22;;;3.78;73.55
44481;BME280;30184;42.018;23.670;2023-02-20T01:38:54;91708.88;;;4.27;74.62
44481;BME280;30184;42.018;23.670;2023-02-20T01:41:23;91666.22;;;4.47;75.28
44481;BME280;30184;42.018;23.670;2023-02-20T01:43:54;91675.84;;;4.44;75.12
44481;BME280;30184;42.018;23.670;2023-02-20T01:46:48;91659.38;;;4.28;74.96
44481;BME280;30184;42.018;23.670;2023-02-20T01:49:23;91682.38;;;4.36;74.83
44481;BME280;30184;42.018;23.670;2023-02-20T01:51:59;91690.06;;;4.34;74.79
44481;BME280;30184;42.018;23.670;2023-02-20T01:54:29;91685.84;;;4.33;74.70
44481;BME280;30184;42.018;23.670;2023-02-20T01:57:00;91701.97;;;4.30;74.78
44481;BME280;30184;42.018;23.670;2023-02-20T01:59:33;91692.78;;;4.24;74.70
44481;BME280;30184;42.018;23.670;2023-02-20T02:02:05;91600.06;;;3.23;74.63
44481;BME280;30184;42.018;23.670;2023-02-20T02:04:36;91686.25;;;4.10;74.78
44481;BME280;30184;42.018;23.670;2023-02-20T02:07:09;91444.56;;;2.42;74.26
44481;BME280;30184;42.018;23.670;2023-02-20T02:09:42;91683.59;;;4.03;74.81
44481;BME280;30184;42.018;23.670;2023-02-20T02:12:13;91315.22;;;1.49;75.14
44481;BME280;30184;42.018;23.670;2023-02-20T02:14:43;91630.34;;;3.49;75.11
44481;BME280;30184;42.018;23.670;2023-02-20T02:17:29;91710.84;;;3.84;75.25
44481;BME280;30184;42.018;23.670;2023-02-20T02:23:36;91723.84;;;3.71;75.92
44481;BME280;30184;42.018;23.670;2023-02-20T02:35:55;91746.13;;;3.79;77.23
44481;BME280;30184;42.018;23.670;2023-02-20T02:38:31;91758.00;;;3.78;76.36
44481;BME280;30184;42.018;23.670;2023-02-20T02:41:08;91756.81;;;3.72;75.95
44481;BME280;30184;42.018;23.670;2023-02-20T02:43:48;91739.97;;;3.68;76.36
44481;BME280;30184;42.018;23.670;2023-02-20T02:46:21;91719.25;;;3.51;76.65
44481;BME280;30184;42.018;23.670;2023-02-20T02:48:58;91734.22;;;3.59;76.69
44481;BME280;30184;42.018;23.670;2023-02-20T02:51:35;91763.72;;;3.59;76.77
44481;BME280;30184;42.018;23.670;2023-02-20T02:54:07;91742.25;;;3.59;77.07
44481;BME280;30184;42.018;23.670;2023-02-20T02:56:38;91727.69;;;3.67;76.74
44481;BME280;30184;42.018;23.670;2023-02-20T02:59:09;91715.03;;;3.53;75.93
44481;BME280;30184;42.018;23.670;2023-02-20T03:01:48;91637.56;;;2.95;75.73
44481;BME280;30184;42.018;23.670;2023-02-20T03:04:19;91718.50;;;3.82;74.85
44481;BME280;30184;42.018;23.670;2023-02-20T03:07:02;91726.16;;;4.01;72.86
44481;BME280;30184;42.018;23.670;2023-02-20T03:09:36;91726.56;;;3.96;73.73
44481;BME280;30184;42.018;23.670;2023-02-20T03:12:08;91735.00;;;3.91;74.05
44481;BME280;30184;42.018;23.670;2023-02-20T03:14:45;91735.00;;;3.88;74.16
44481;BME280;30184;42.018;23.670;2023-02-20T03:17:36;91737.69;;;3.84;74.29
44481;BME280;30184;42.018;23.670;2023-02-20T03:20:09;91734.22;;;3.77;74.16
44481;BME280;30184;42.018;23.670;2023-02-20T03:22:43;91731.91;;;3.82;74.32
44481;BME280;30184;42.018;23.670;2023-02-20T03:25:18;91687.03;;;3.54;74.22
44481;BME280;30184;42.018;23.670;2023-02-20T03:27:52;91696.22;;;3.21;74.04
44481;BME280;30184;42.018;23.670;2023-02-20T03:30:24;91776.03;;;4.02;74.13
44481;BME280;30184;42.018;23.670;2023-02-20T03:33:00;91643.31;;;3.00;74.04
44481;BME280;30184;42.018;23.670;2023-02-20T03:35:50;91765.69;;;3.97;73.64
44481;BME280;30184;42.018;23.670;2023-02-20T03:38:41;91783.72;;;4.32;73.63
44481;BME280;30184;42.018;23.670;2023-02-20T03:41:32;91774.50;;;4.30;73.89
44481;BME280;30184;42.018;23.670;2023-02-20T03:44:21;91774.88;;;4.53;73.67
44481;BME280;30184;42.018;23.670;2023-02-20T03:46:54;91777.16;;;4.58;73.44
44481;BME280;30184;42.018;23.670;2023-02-20T03:49:26;91771.78;;;4.51;73.26
44481;BME280;30184;42.018;23.670;2023-02-20T03:51:57;91797.50;;;4.66;72.73
44481;BME280;30184;42.018;23.670;2023-02-20T03:54:54;91807.84;;;4.68;72.59
44481;BME280;30184;42.018;23.670;2023-02-20T03:57:29;91684.38;;;3.47;72.30
44481;BME280;30184;42.018;23.670;2023-02-20T04:00:02;91824.00;;;4.71;72.38
44481;BME280;30184;42.018;23.670;2023-02-20T04:02:43;91818.63;;;4.71;72.48
44481;BME280;30184;42.018;23.670;2023-02-20T04:05:17;91844.34;;;4.72;72.25
44481;BME280;30184;42.018;23.670;2023-02-20T04:07:50;91778.31;;;4.57;72.40
44481;BME280;30184;42.018;23.670;2023-02-20T04:10:25;91798.25;;;4.70;72.44
44481;BME280;30184;42.018;23.670;2023-02-20T04:12:57;91810.56;;;4.71;72.41
44481;BME280;30184;42.018;23.670;2023-02-20T04:15:28;91818.97;;;4.73;72.25
44481;BME280;30184;42.018;23.670;2023-02-20T04:18:04;91828.22;;;4.72;72.32
44481;BME280;30184;42.018;23.670;2023-02-20T04:20:34;91843.97;;;4.70;72.29
44481;BME280;30184;42.018;23.670;2023-02-20T04:23:15;91848.94;;;4.65;72.51
44481;BME280;30184;42.018;23.670;2023-02-20T04:25:48;91849.34;;;4.60;72.91
44481;BME280;30184;42.018;23.670;2023-02-20T04:28:19;91833.19;;;4.28;72.76
44481;BME280;30184;42.018;23.670;2023-02-20T04:30:56;91849.72;;;4.51;73.04
44481;BME280;30184;42.018;23.670;2023-02-20T04:33:26;91842.81;;;4.43;73.56
44481;BME280;30184;42.018;23.670;2023-02-20T04:36:00;91828.22;;;4.40;73.91
44481;BME280;30184;42.018;23.670;2023-02-20T04:38:29;91839.72;;;4.37;74.33
44481;BME280;30184;42.018;23.670;2023-02-20T04:41:01;91841.28;;;4.35;74.00
44481;BME280;30184;42.018;23.670;2023-02-20T04:43:30;91663.16;;;2.78;73.77
44481;BME280;30184;42.018;23.670;2023-02-20T04:46:01;91769.50;;;3.75;73.87
44481;BME280;30184;42.018;23.670;2023-02-20T04:48:30;91817.47;;;3.94;74.00
44481;BME280;30184;42.018;23.670;2023-02-20T04:51:01;91873.13;;;4.29;74.04
44481;BME280;30184;42.018;23.670;2023-02-20T04:53:32;91876.56;;;4.30;74.06
44481;BME280;30184;42.018;23.670;2023-02-20T04:56:02;91881.94;;;4.30;74.28
44481;BME280;30184;42.018;23.670;2023-02-20T04:58:33;91863.53;;;4.32;73.91
44481;BME280;30184;42.018;23.670;2023-02-20T05:01:15;91874.28;;;4.35;72.30
44481;BME280;30184;42.018;23.670;2023-02-20T05:03:45;91867.38;;;4.38;71.22
44481;BME280;30184;42.018;23.670;2023-02-20T05:06:14;91865.09;;;4.54;70.93
44481;BME280;30184;42.018;23.670;2023-02-20T05:08:43;91855.09;;;4.58;71.16
44481;BME280;30184;42.018;23.670;2023-02-20T05:11:13;91856.25;;;4.61;70.18
44481;BME280;30184;42.018;23.670;2023-02-20T05:13:42;91841.25;;;4.67;69.55
44481;BME280;30184;42.018;23.670;2023-02-20T05:16:11;91755.69;;;4.30;62.13
44481;BME280;30184;42.018;23.670;2023-02-20T05:18:41;91818.56;;;4.96;61.43
44481;BME280;30184;42.018;23.670;2023-02-20T05:21:12;91827.78;;;4.92;61.26
44481;BME280;30184;42.018;23.670;2023-02-20T05:23:59;91886.50;;;5.32;64.99
44481;BME280;30184;42.018;23.670;2023-02-20T05:26:29;91899.19;;;5.28;66.11
44481;BME280;30184;42.018;23.670;2023-02-20T05:28:58;91885.34;;;5.26;66.44
44481;BME280;30184;42.018;23.670;2023-02-20T05:31:27;91890.34;;;5.24;66.16
44481;BME280;30184;42.018;23.670;2023-02-20T05:33:56;91891.50;;;5.19;65.32
44481;BME280;30184;42.018;23.670;2023-02-20T05:36:25;91904.94;;;5.30;64.38
44481;BME280;30184;42.018;23.670;2023-02-20T05:38:54;91901.84;;;5.46;60.59
44481;BME280;30184;42.018;23.670;2023-02-20T05:41:23;91903.38;;;5.43;58.53
44481;BME280;30184;42.018;23.670;2023-02-20T05:43:54;91922.06;;;5.86;56.18
44481;BME280;30184;42.018;23.670;2023-02-20T05:46:24;91940.84;;;6.14;53.37
44481;BME280;30184;42.018;23.670;2023-02-20T05:48:54;91926.25;;;6.05;52.67
44481;BME280;30184;42.018;23.670;2023-02-20T05:51:25;91952.97;;;6.51;52.03
44481;BME280;30184;42.018;23.670;2023-02-20T05:53:55;91949.03;;;6.66;51.40
44481;BME280;30184;42.018;23.670;2023-02-20T05:56:24;91972.06;;;6.78;51.63
44481;BME280;30184;42.018;23.670;2023-02-20T05:58:54;91957.78;;;6.84;52.16
44481;BME280;30184;42.018;23.670;2023-02-20T06:01:26;91961.19;;;6.92;52.04
44481;BME280;30184;42.018;23.670;2023-02-20T06:03:55;91968.06;;;7.03;51.05
44481;BME280;30184;42.018;23.670;2023-02-20T06:06:31;91957.91;;;7.15;50.97
44481;BME280;30184;42.018;23.670;2023-02-20T06:09:00;91958.22;;;7.24;51.20
44481;BME280;30184;42.018;23.670;2023-02-20T06:11:29;91943.88;;;7.34;50.09
44481;BME280;30184;42.018;23.670;2023-02-20T06:13:59;91950.34;;;7.43;49.72
44481;BME280;30184;42.018;23.670;2023-02-20T06:16:29;91908.47;;;7.28;50.25
44481;BME280;30184;42.018;23.670;2023-02-20T06:18:58;91882.47;;;7.04;50.37
44481;BME280;30184;42.018;23.670;2023-02-20T06:21:27;91915.41;;;7.67;50.02
44481;BME280;30184;42.018;23.670;2023-02-20T06:23:56;91922.66;;;7.73;49.91
44481;BME280;30184;42.018;23.670;2023-02-20T06:26:25;91883.06;;;7.60;49.51
44481;BME280;30184;42.018;23.670;2023-02-20T06:28:54;91907.00;;;7.92;48.76
44481;BME280;30184;42.018;23.670;2023-02-20T06:31:27;91901.47;;;8.02;48.20
44481;BME280;30184;42.018;23.670;2023-02-20T06:33:56;91797.78;;;6.94;47.84
44481;BME280;30184;42.018;23.670;2023-02-20T06:36:27;91895.81;;;8.23;47.89
44481;BME280;30184;42.018;23.670;2023-02-20T06:38:57;91895.34;;;8.32;47.27
44481;BME280;30184;42.018;23.670;2023-02-20T06:41:26;91710.47;;;7.11;47.69
44481;BME280;30184;42.018;23.670;2023-02-20T06:43:55;91846.31;;;8.27;47.13
44481;BME280;30184;42.018;23.670;2023-02-20T06:46:25;91844.66;;;8.36;47.35
44481;BME280;30184;42.018;23.670;2023-02-20T06:48:56;91865.19;;;8.60;46.23
44481;BME280;30184;42.018;23.670;2023-02-20T06:51:27;91887.13;;;8.66;46.14
44481;BME280;30184;42.018;23.670;2023-02-20T06:53:57;91853.78;;;8.73;45.16
44481;BME280;30184;42.018;23.670;2023-02-20T06:56:29;91869.16;;;9.03;44.63
44481;BME280;30184;42.018;23.670;2023-02-20T06:58:59;91914.53;;;9.18;43.67
44481;BME280;30184;42.018;23.670;2023-02-20T07:01:31;91883.94;;;8.98;42.42
44481;BME280;30184;42.018;23.670;2023-02-20T07:04:06;91865.88;;;9.58;42.03
44481;BME280;30184;42.018;23.670;2023-02-20T07:06:35;91871.66;;;9.80;41.75
44481;BME280;30184;42.018;23.670;2023-02-20T07:09:04;91883.28;;;10.00;40.90
44481;BME280;30184;42.018;23.670;2023-02-20T07:11:33;91883.38;;;10.13;40.57
44481;BME280;30184;42.018;23.670;2023-02-20T07:14:02;91892.47;;;10.26;40.13
44481;BME280;30184;42.018;23.670;2023-02-20T07:16:32;91894.19;;;10.36;39.34
44481;BME280;30184;42.018;23.670;2023-02-20T07:19:01;91901.00;;;10.44;39.30
44481;BME280;30184;42.018;23.670;2023-02-20T07:21:31;91905.28;;;10.61;39.37
44481;BME280;30184;42.018;23.670;2023-02-20T07:24:00;91909.88;;;10.80;40.17
44481;BME280;30184;42.018;23.670;2023-02-20T07:26:29;91891.31;;;10.95;40.45
44481;BME280;30184;42.018;23.670;2023-02-20T07:28:58;91856.09;;;10.75;41.55
44481;BME280;30184;42.018;23.670;2023-02-20T07:31:27;91830.41;;;10.80;38.03
44481;BME280;30184;42.018;23.670;2023-02-20T07:33:58;91909.31;;;11.05;37.29
44481;BME280;30184;42.018;23.670;2023-02-20T07:36:36;91852.72;;;10.88;36.49
44481;BME280;30184;42.018;23.670;2023-02-20T07:39:06;91891.50;;;11.04;35.64
44481;BME280;30184;42.018;23.670;2023-02-20T07:41:34;91892.59;;;10.91;36.50
44481;BME280;30184;42.018;23.670;2023-02-20T07:44:05;91899.56;;;10.92;35.56
44481;BME280;30184;42.018;23.670;2023-02-20T07:46:34;91805.53;;;10.49;35.44
44481;BME280;30184;42.018;23.670;2023-02-20T07:49:05;91893.13;;;11.02;35.31
44481;BME280;30184;42.018;23.670;2023-02-20T07:51:34;91904.22;;;11.07;35.52
44481;BME280;30184;42.018;23.670;2023-02-20T07:54:03;91908.13;;;11.22;35.44
44481;BME280;30184;42.018;23.670;2023-02-20T07:56:32;91868.00;;;10.98;34.13
44481;BME280;30184;42.018;23.670;2023-02-20T07:59:01;91886.38;;;10.74;34.05
44481;BME280;30184;42.018;23.670;2023-02-20T08:01:30;91893.34;;;11.23;32.83
44481;BME280;30184;42.018;23.670;2023-02-20T08:04:02;91902.59;;;11.42;32.96
44481;BME280;30184;42.018;23.670;2023-02-20T08:06:39;91900.91;;;11.48;33.48
44481;BME280;30184;42.018;23.670;2023-02-20T08:09:07;91873.75;;;11.16;33.41
44481;BME280;30184;42.018;23.670;2023-02-20T08:11:36;91897.66;;;11.53;33.06
44481;BME280;30184;42.018;23.670;2023-02-20T08:14:06;91922.75;;;11.29;32.64
44481;BME280;30184;42.018;23.670;2023-02-20T08:16:35;91714.28;;;10.23;32.91
44481;BME280;30184;42.018;23.670;2023-02-20T08:19:04;91900.75;;;11.39;31.67
44481;BME280;30184;42.018;23.670;2023-02-20T08:21:33;91841.19;;;11.00;31.27
44481;BME280;30184;42.018;23.670;2023-02-20T08:24:04;91880.34;;;11.31;31.43
44481;BME280;30184;42.018;23.670;2023-02-20T08:26:33;91845.34;;;11.20;31.65
44481;BME280;30184;42.018;23.670;2023-02-20T08:29:02;91918.63;;;11.69;32.02
44481;BME280;30184;42.018;23.670;2023-02-20T08:31:31;91911.75;;;11.65;31.71
44481;BME280;30184;42.018;23.670;2023-02-20T08:34:00;91922.97;;;11.50;30.64
44481;BME280;30184;42.018;23.670;2023-02-20T08:36:29;91895.72;;;11.54;30.82
44481;BME280;30184;42.018;23.670;2023-02-20T08:38:58;91919.00;;;11.55;30.81
44481;BME280;30184;42.018;23.670;2023-02-20T08:41:29;91927.91;;;11.55;30.43
44481;BME280;30184;42.018;23.670;2023-02-20T08:43:58;91917.63;;;11.63;30.05
44481;BME280;30184;42.018;23.670;2023-02-20T08:46:27;91917.34;;;11.74;29.93
44481;BME280;30184;42.018;23.670;2023-02-20T08:48:56;91918.91;;;11.75;29.43
44481;BME280;30184;42.018;23.670;2023-02-20T08:51:25;91941.47;;;11.72;29.65
44481;BME280;30184;42.018;23.670;2023-02-20T08:53:54;91933.28;;;11.75;29.10
44481;BME280;30184;42.018;23.670;2023-02-20T08:56:23;91938.75;;;11.72;29.57
44481;BME280;30184;42.018;23.670;2023-02-20T08:58:53;91884.44;;;10.74;28.76
44481;BME280;30184;42.018;23.670;2023-02-20T09:01:22;91902.00;;;11.51;28.98
44481;BME280;30184;42.018;23.670;2023-02-20T09:03:52;91912.41;;;11.69;29.04
44481;BME280;30184;42.018;23.670;2023-02-20T09:06:21;91789.53;;;10.55;29.33
44481;BME280;30184;42.018;23.670;2023-02-20T09:08:51;91951.09;;;11.60;28.27
44481;BME280;30184;42.018;23.670;2023-02-20T09:11:20;91833.81;;;11.00;28.83
44481;BME280;30184;42.018;23.670;2023-02-20T09:13:49;91786.28;;;10.76;28.88
44481;BME280;30184;42.018;23.670;2023-02-20T09:16:21;91919.56;;;11.79;28.75
44481;BME280;30184;42.018;23.670;2023-02-20T09:18:50;91940.06;;;11.83;29.10
44481;BME280;30184;42.018;23.670;2023-02-20T09:21:23;91843.81;;;11.19;29.58
44481;BME280;30184;42.018;23.670;2023-02-20T09:23:55;91943.41;;;12.04;29.10
44481;BME280;30184;42.018;23.670;2023-02-20T09:26:23;91919.25;;;12.06;29.18
44481;BME280;30184;42.018;23.670;2023-02-20T09:28:52;91924.66;;;12.22;29.12
44481;BME280;30184;42.018;23.670;2023-02-20T09:31:23;91949.16;;;12.34;29.10
44481;BME280;30184;42.018;23.670;2023-02-20T09:33:52;91934.63;;;12.41;28.88
44481;BME280;30184;42.018;23.670;2023-02-20T09:36:20;91859.19;;;11.55;29.54
44481;BME280;30184;42.018;23.670;2023-02-20T09:38:49;91937.66;;;12.43;28.67
44481;BME280;30184;42.018;23.670;2023-02-20T09:41:27;91912.16;;;12.37;28.45
44481;BME280;30184;42.018;23.670;2023-02-20T09:44:06;91775.31;;;11.12;28.85
44481;BME280;30184;42.018;23.670;2023-02-20T09:46:42;91925.38;;;12.51;27.78
44481;BME280;30184;42.018;23.670;2023-02-20T09:49:14;91934.84;;;12.47;28.29
44481;BME280;30184;42.018;23.670;2023-02-20T09:51:49;91929.75;;;12.49;28.47
44481;BME280;30184;42.018;23.670;2023-02-20T09:54:23;91869.28;;;12.00;28.56
44481;BME280;30184;42.018;23.670;2023-02-20T09:56:58;91935.22;;;12.74;28.03
44481;BME280;30184;42.018;23.670;2023-02-20T09:59:32;91896.72;;;12.47;28.27
44481;BME280;30184;42.018;23.670;2023-02-20T10:02:13;91946.75;;;12.65;28.07
44481;BME280;30184;42.018;23.670;2023-02-20T10:04:44;91921.03;;;12.54;28.14
44481;BME280;30184;42.018;23.670;2023-02-20T10:07:28;91914.06;;;12.53;28.70
44481;BME280;30184;42.018;23.670;2023-02-20T10:09:59;91934.19;;;12.55;28.25
44481;BME280;30184;42.018;23.670;2023-02-20T10:12:34;91935.66;;;12.60;29.17
44481;BME280;30184;42.018;23.670;2023-02-20T10:15:15;91783.78;;;11.30;29.14
44481;BME280;30184;42.018;23.670;2023-02-20T10:17:56;91805.59;;;11.55;27.54
44481;BME280;30184;42.018;23.670;2023-02-20T10:20:36;91947.59;;;12.62;28.46
44481;BME280;30184;42.018;23.670;2023-02-20T10:23:14;91945.66;;;12.63;27.56
44481;BME280;30184;42.018;23.670;2023-02-20T10:25:50;91950.97;;;12.54;27.62
44481;BME280;30184;42.018;23.670;2023-02-20T10:28:21;91942.47;;;12.52;27.93
44481;BME280;30184;42.018;23.670;2023-02-20T10:30:56;91942.38;;;12.55;27.83
44481;BME280;30184;42.018;23.670;2023-02-20T10:33:32;91898.16;;;12.10;27.58
44481;BME280;30184;42.018;23.670;2023-02-20T10:36:09;91872.38;;;12.14;27.87
44481;BME280;30184;42.018;23.670;2023-02-20T10:38:44;91901.69;;;12.23;28.67
44481;BME280;30184;42.018;23.670;2023-02-20T10:41:19;91932.34;;;12.52;28.50
44481;BME280;30184;42.018;23.670;2023-02-20T10:43:54;91878.50;;;12.18;27.58
44481;BME280;30184;42.018;23.670;2023-02-20T10:46:30;91906.16;;;12.29;27.83
44481;BME280;30184;42.018;23.670;2023-02-20T10:49:16;91931.16;;;12.24;28.13
44481;BME280;30184;42.018;23.670;2023-02-20T10:51:49;91837.94;;;11.66;28.41
44481;BME280;30184;42.018;23.670;2023-02-20T10:54:23;91912.47;;;12.26;28.23
44481;BME280;30184;42.018;23.670;2023-02-20T10:56:58;91919.91;;;12.39;27.94
44481;BME280;30184;42.018;23.670;2023-02-20T10:59:31;91866.63;;;12.25;28.24
44481;BME280;30184;42.018;23.670;2023-02-20T11:02:04;91945.34;;;12.74;27.66
44481;BME280;30184;42.018;23.670;2023-02-20T11:04:38;91920.28;;;12.66;26.64
44481;BME280;30184;42.018;23.670;2023-02-20T11:07:13;91901.72;;;12.36;27.13
44481;BME280;30184;42.018;23.670;2023-02-20T11:09:42;91919.31;;;12.60;27.82
44481;BME280;30184;42.018;23.670;2023-02-20T11:12:20;91916.59;;;12.60;27.79
44481;BME280;30184;42.018;23.670;2023-02-20T11:14:52;91919.31;;;12.60;27.67
44481;BME280;30184;42.018;23.670;2023-02-20T11:17:24;91920.81;;;12.61;27.61
44481;BME280;30184;42.018;23.670;2023-02-20T11:19:57;91896.19;;;12.52;27.06
44481;BME280;30184;42.018;23.670;2023-02-20T11:22:41;91911.69;;;12.67;27.68
44481;BME280;30184;42.018;23.670;2023-02-20T11:25:18;91932.13;;;12.47;27.45
44481;BME280;30184;42.018;23.670;2023-02-20T11:27:47;91917.00;;;12.71;27.54
44481;BME280;30184;42.018;23.670;2023-02-20T11:30:26;91913.78;;;12.76;27.74
44481;BME280;30184;42.018;23.670;2023-02-20T11:33:03;91928.25;;;12.73;26.84
44481;BME280;30184;42.018;23.670;2023-02-20T11:35:36;91862.81;;;11.81;26.90
44481;BME280;30184;42.018;23.670;2023-02-20T11:38:31;91869.69;;;12.27;27.12
44481;BME280;30184;42.018;23.670;2023-02-20T11:41:11;91922.34;;;12.62;27.43
44481;BME280;30184;42.018;23.670;2023-02-20T11:43:43;91921.69;;;12.58;28.13
44481;BME280;30184;42.018;23.670;2023-02-20T11:46:27;91914.41;;;12.67;28.05
44481;BME280;30184;42.018;23.670;2023-02-20T11:48:58;91910.50;;;12.68;27.59
44481;BME280;30184;42.018;23.670;2023-02-20T11:51:34;91917.78;;;12.71;28.02
44481;BME280;30184;42.018;23.670;2023-02-20T11:54:29;91927.25;;;12.80;27.97
44481;BME280;30184;42.018;23.670;2023-02-20T11:57:01;91954.28;;;12.74;28.13
44481;BME280;30184;42.018;23.670;2023-02-20T11:59:35;91943.28;;;12.90;28.03
44481;BME280;30184;42.018;23.670;2023-02-20T12:02:26;91937.63;;;12.85;28.00
44481;BME280;30184;42.018;23.670;2023-02-20T12:05:07;91936.31;;;12.89;27.67
44481;BME280;30184;42.018;23.670;2023-02-20T12:07:44;91893.59;;;12.61;27.70
44481;BME280;30184;42.018;23.670;2023-02-20T12:10:30;91918.44;;;12.88;28.09
44481;BME280;30184;42.018;23.670;2023-02-20T12:13:03;91930.34;;;13.07;27.77
44481;BME280;30184;42.018;23.670;2023-02-20T12:15:33;91939.59;;;13.09;27.19
44481;BME280;30184;42.018;23.670;2023-02-20T12:21:25;91914.75;;;12.82;26.69
44481;BME280;30184;42.018;23.670;2023-02-20T12:24:08;91893.94;;;12.76;26.87
44481;BME280;30184;42.018;23.670;2023-02-20T12:26:48;91916.63;;;12.85;26.97
44481;BME280;30184;42.018;23.670;2023-02-20T12:29:31;91921.63;;;12.87;26.62
44481;BME280;30184;42.018;23.670;2023-02-20T12:32:13;91914.31;;;12.84;26.72
44481;BME280;30184;42.018;23.670;2023-02-20T12:34:57;91906.69;;;12.79;26.58
44481;BME280;30184;42.018;23.670;2023-02-20T12:37:36;91909.31;;;12.82;26.99
44481;BME280;30184;42.018;23.670;2023-02-20T12:40:28;91816.00;;;12.15;26.88
44481;BME280;30184;42.018;23.670;2023-02-20T12:43:09;91896.78;;;12.85;26.43
44481;BME280;30184;42.018;23.670;2023-02-20T12:45:47;91756.38;;;11.95;26.19
44481;BME280;30184;42.018;23.670;2023-02-20T12:48:27;91830.84;;;12.14;26.69
44481;BME280;30184;42.018;23.670;2023-02-20T12:51:11;91757.31;;;11.76;26.76
44481;BME280;30184;42.018;23.670;2023-02-20T12:53:58;91858.44;;;12.66;26.36
44481;BME280;30184;42.018;23.670;2023-02-20T12:56:48;91902.78;;;12.92;26.35
44481;BME280;30184;42.018;23.670;2023-02-20T12:59:26;91908.19;;;12.80;26.13
44481;BME280;30184;42.018;23.670;2023-02-20T13:02:01;91687.94;;;11.01;26.40
44481;BME280;30184;42.018;23.670;2023-02-20T13:04:41;91961.22;;;12.50;26.46
44481;BME280;30184;42.018;23.670;2023-02-20T13:07:16;91781.63;;;11.67;27.15
44481;BME280;30184;42.018;23.670;2023-02-20T13:09:57;91773.56;;;11.34;27.30
44481;BME280;30184;42.018;23.670;2023-02-20T13:12:28;91851.38;;;12.15;27.66
44481;BME280;30184;42.018;23.670;2023-02-20T13:15:06;91900.88;;;12.51;27.65
44481;BME280;30184;42.018;23.670;2023-02-20T13:17:43;91810.19;;;11.87;27.93
44481;BME280;30184;42.018;23.670;2023-02-20T13:20:18;91907.63;;;12.47;27.89
44481;BME280;30184;42.018;23.670;2023-02-20T13:23:00;91911.19;;;12.44;28.52
44481;BME280;30184;42.018;23.670;2023-02-20T13:25:41;91914.25;;;12.46;28.58
44481;BME280;30184;42.018;23.670;2023-02-20T13:28:34;91887.69;;;12.37;28.49
44481;BME280;30184;42.018;23.670;2023-02-20T13:31:12;91692.31;;;10.82;28.49
44481;BME280;30184;42.018;23.670;2023-02-20T13:33:43;91899.13;;;12.45;28.29
44481;BME280;30184;42.018;23.670;2023-02-20T13:36:23;91891.16;;;12.38;28.42
44481;BME280;30184;42.018;23.670;2023-02-20T13:42:33;91918.16;;;12.45;28.42
44481;BME280;30184;42.018;23.670;2023-02-20T13:45:38;91909.22;;;12.31;28.79
44481;BME280;30184;42.018;23.670;2023-02-20T13:48:19;91905.28;;;12.20;29.44